Time;durP1;ratioP1;P1;durP2;ratioP2;P2;SDS_P1;SDS_P2;PMS_P1;PMS_P2;Temp;Humidity;BMP_temperature;BMP_pressure;BME280_temperature;BME280_humidity;BME280_pressure;Samples;Min_cycle;Max_cycle;Signal;HPM_P1;HPM_P2
2023/09/28 00:02:48;;;;;;;4.40;2.28;;;;;;;19.12;61.95;99861.34;4935482;29;20146;-94
2023/09/28 00:05:16;;;;;;;4.53;2.17;;;;;;;18.85;61.82;99815.41;4925381;29;20534;-94
2023/09/28 00:07:43;;;;;;;8.05;2.95;;;;;;;19.23;61.66;99859.94;4922996;29;20506;-94
2023/09/28 00:10:11;;;;;;;6.60;2.22;;;;;;;19.01;62.21;99866.31;4917600;29;20076;-92
2023/09/28 00:12:42;;;;;;;4.38;3.05;;;;;;;18.89;61.81;99813.44;4918052;29;20414;-93
2023/09/28 00:15:09;;;;;;;7.65;2.80;;;;;;;19.27;61.44;99877.59;4917660;29;20046;-93
2023/09/28 00:17:37;;;;;;;11.68;3.58;;;;;;;18.86;61.77;99793.09;4917787;29;20031;-94
2023/09/28 00:20:13;;;;;;;8.63;2.58;;;;;;;18.77;62.29;99834.44;4918090;29;20039;-91
2023/09/28 00:22:43;;;;;;;11.35;2.30;;;;;;;19.14;62.08;99842.56;4919545;29;20423;-94
2023/09/28 00:25:12;;;;;;;4.93;2.38;;;;;;;19.29;61.25;99852.50;4933815;29;20499;-94
2023/09/28 00:27:39;;;;;;;2.47;1.95;;;;;;;19.02;62.15;99837.78;4921154;29;20043;-94
2023/09/28 00:30:18;;;;;;;5.47;1.95;;;;;;;18.79;62.52;99824.53;4918334;29;20027;-94
2023/09/28 00:32:48;;;;;;;5.43;2.65;;;;;;;19.01;62.97;99850.28;4918220;29;20032;-91
2023/09/28 00:35:13;;;;;;;4.00;2.33;;;;;;;19.29;62.46;99903.31;4934526;29;20043;-93
2023/09/28 00:37:40;;;;;;;4.88;2.17;;;;;;;18.63;62.59;99803.94;4918597;29;20498;-93
2023/09/28 00:43:08;;;;;;;11.57;2.50;;;;;;;18.82;62.86;99842.22;4875775;29;20041;-89
2023/09/28 00:45:34;;;;;;;16.13;3.10;;;;;;;18.99;62.62;99854.84;4879231;29;20127;-93
2023/09/28 00:48:05;;;;;;;7.45;2.33;;;;;;;18.63;63.04;99810.16;4871941;29;20556;-92
2023/09/28 00:50:34;;;;;;;4.22;2.30;;;;;;;18.77;62.41;99836.25;4875802;29;20040;-93
2023/09/28 00:53:14;;;;;;;5.65;2.20;;;;;;;18.60;62.38;99807.63;5094155;27;1672165;-95
2023/09/28 00:55:41;;;;;;;3.90;2.33;;;;;;;18.67;62.80;99802.88;5128523;28;20126;-94
2023/09/28 00:58:09;;;;;;;6.30;2.88;;;;;;;18.54;63.15;99822.13;5125954;28;20030;-93
2023/09/28 01:00:36;;;;;;;7.00;3.33;;;;;;;18.46;63.36;99826.09;5128989;27;20028;-93
2023/09/28 01:03:05;;;;;;;2.38;1.80;;;;;;;18.28;64.04;99798.44;5128537;27;20454;-93
2023/09/28 01:05:33;;;;;;;3.35;2.33;;;;;;;18.82;63.81;99903.69;5127505;28;20031;-95
2023/09/28 01:08:15;;;;;;;16.67;3.28;;;;;;;18.38;63.89;99807.72;5129939;27;20020;-96
2023/09/28 01:10:46;;;;;;;4.70;3.10;;;;;;;18.37;63.59;99806.03;5128915;27;20560;-95
2023/09/28 01:13:15;;;;;;;4.38;2.63;;;;;;;18.37;63.60;99811.38;5107881;28;20096;-95
2023/09/28 01:15:49;;;;;;;11.82;3.25;;;;;;;18.35;63.44;99797.19;5107796;28;20035;-96
2023/09/28 01:18:22;;;;;;;9.00;3.85;;;;;;;18.70;63.24;99854.34;5127204;27;20044;-95
2023/09/28 01:20:51;;;;;;;5.47;3.33;;;;;;;18.50;63.24;99830.34;5125612;28;20031;-96
2023/09/28 01:23:18;;;;;;;3.78;2.33;;;;;;;18.47;63.99;99863.41;5127925;28;20042;-95
2023/09/28 01:25:47;;;;;;;14.82;3.33;;;;;;;18.02;64.63;99817.31;5128130;28;20023;-96
2023/09/28 01:28:16;;;;;;;4.65;2.33;;;;;;;18.01;65.28;99823.63;5127992;28;20046;-95
2023/09/28 01:30:43;;;;;;;6.63;2.58;;;;;;;18.18;65.44;99849.56;5125993;28;20050;-96
2023/09/28 01:33:09;;;;;;;5.90;3.55;;;;;;;18.07;66.20;99850.03;5127814;28;20473;-94
2023/09/28 01:35:35;;;;;;;8.00;2.88;;;;;;;18.07;66.53;99843.81;5127472;28;20034;-96
2023/09/28 01:38:20;;;;;;;4.82;3.42;;;;;;;18.05;65.78;99837.69;5128945;27;20058;-96
2023/09/28 01:40:48;;;;;;;5.07;2.63;;;;;;;18.17;65.47;99849.63;5127487;28;20027;-96
2023/09/28 01:43:16;;;;;;;5.70;2.72;;;;;;;18.12;65.90;99835.59;5123406;28;20043;-95
2023/09/28 01:45:42;;;;;;;13.63;3.40;;;;;;;17.88;65.61;99793.00;5107355;28;20035;-94
2023/09/28 01:48:08;;;;;;;9.52;3.58;;;;;;;17.90;65.34;99809.84;5113542;28;20518;-94
2023/09/28 01:50:35;;;;;;;5.25;2.05;;;;;;;18.30;66.01;99873.97;5126596;28;20551;-93
2023/09/28 01:53:01;;;;;;;4.72;3.13;;;;;;;17.93;66.02;99831.06;5096552;28;20517;-94
2023/09/28 01:55:26;;;;;;;8.05;3.58;;;;;;;17.98;65.54;99810.41;5105580;28;20063;-94
2023/09/28 01:57:52;;;;;;;9.20;3.75;;;;;;;18.19;65.54;99842.41;5089066;28;20070;-93
2023/09/28 02:00:25;;;;;;;6.75;3.83;;;;;;;17.88;65.01;99801.91;5106186;28;20039;-93
2023/09/28 02:02:56;;;;;;;9.07;4.53;;;;;;;18.13;64.83;99829.34;5103496;28;20028;-94
2023/09/28 02:05:25;;;;;;;8.15;3.65;;;;;;;17.91;64.88;99806.25;5092581;28;20024;-94
2023/09/28 02:07:51;;;;;;;15.05;3.92;;;;;;;18.00;64.92;99840.56;5092567;28;20085;-94
2023/09/28 02:10:18;;;;;;;9.35;3.45;;;;;;;17.88;65.32;99841.94;5101533;28;20035;-95
2023/09/28 02:12:44;;;;;;;6.80;3.28;;;;;;;17.88;65.17;99841.94;5110744;28;20127;-95
2023/09/28 02:15:15;;;;;;;15.30;3.92;;;;;;;17.74;65.75;99819.44;5112849;28;20095;-95
2023/09/28 02:17:42;;;;;;;9.95;3.28;;;;;;;17.42;66.07;99814.50;5112633;28;20488;-94
2023/09/28 02:20:10;;;;;;;11.52;2.80;;;;;;;17.53;65.75;99828.28;5113648;27;20037;-94
2023/09/28 02:22:46;;;;;;;8.57;3.65;;;;;;;17.64;65.55;99840.28;5112538;28;20221;-93
2023/09/28 02:25:17;;;;;;;;;;;;;;;17.85;65.89;99879.38;5079656;28;20032;-95
2023/09/28 02:27:45;;;;;;;7.97;3.53;;;;;;;17.68;65.78;99855.22;5092456;28;19912;-93
2023/09/28 02:30:13;;;;;;;7.70;4.60;;;;;;;17.44;66.34;99835.75;5109879;28;20035;-94
2023/09/28 02:32:49;;;;;;;18.08;3.17;;;;;;;17.40;66.14;99824.38;5092462;28;20066;-94
2023/09/28 02:35:16;;;;;;;9.32;3.05;;;;;;;17.67;65.84;99854.38;5100446;28;20036;-94
2023/09/28 02:37:44;;;;;;;4.60;2.88;;;;;;;17.39;65.51;99805.75;5113540;28;20409;-95
2023/09/28 02:40:13;;;;;;;7.00;3.65;;;;;;;17.59;65.91;99842.28;5114088;28;20070;-94
2023/09/28 02:42:39;;;;;;;4.10;2.05;;;;;;;17.69;65.79;99867.66;5113085;28;20059;-94
2023/09/28 02:45:15;;;;;;;4.38;2.83;;;;;;;17.43;66.26;99820.72;5108736;28;20425;-94
2023/09/28 02:47:46;;;;;;;15.27;3.22;;;;;;;17.69;65.86;99846.31;5093903;28;20031;-93
2023/09/28 02:50:13;;;;;;;4.72;2.88;;;;;;;17.44;66.29;99836.66;5092531;28;20040;-93
2023/09/28 02:52:40;;;;;;;11.95;3.80;;;;;;;17.45;66.92;99851.69;5115186;28;20039;-92
2023/09/28 02:55:07;;;;;;;5.55;2.95;;;;;;;17.48;66.87;99806.25;5116326;28;20016;-94
2023/09/28 02:57:35;;;;;;;7.78;2.25;;;;;;;17.61;66.80;99817.28;5109768;28;20031;-95
2023/09/28 03:00:24;;;;;;;9.48;3.50;;;;;;;17.89;67.06;99840.16;5111852;28;20092;-95
2023/09/28 03:02:56;;;;;;;4.45;3.17;;;;;;;17.51;67.04;99813.25;5111936;28;20122;-94
2023/09/28 03:05:22;;;;;;;8.27;3.13;;;;;;;17.83;67.43;99867.91;5096923;28;20035;-95
2023/09/28 03:07:49;;;;;;;5.05;2.55;;;;;;;18.02;67.47;99881.38;5081235;28;20063;-95
2023/09/28 03:10:15;;;;;;;12.77;3.60;;;;;;;18.34;66.85;99879.13;5074875;28;20035;-88
2023/09/28 03:12:57;;;;;;;6.93;2.67;;;;;;;18.47;67.16;99908.81;5092501;28;20508;-88
2023/09/28 03:15:49;;;;;;;10.57;3.33;;;;;;;18.05;66.60;99809.19;5092104;28;20024;-95
2023/09/28 03:18:39;;;;;;;;;;;;;;;;;;;;;
2023/09/28 03:21:58;;;;;;;4.60;3.15;;;;;;;18.52;66.24;99884.56;5030073;28;20142;-96
2023/09/28 03:25:31;;;;;;;32.00;3.60;;;;;;;18.11;66.15;99821.41;4991392;28;20188;-95
2023/09/28 03:31:18;;;;;;;5.38;2.47;;;;;;;18.50;65.41;99881.09;4874871;29;20833;-90
2023/09/28 03:33:43;;;;;;;8.48;3.10;;;;;;;17.88;65.79;99803.69;4875871;29;20045;-90
2023/09/28 03:36:09;;;;;;;13.80;2.67;;;;;;;18.05;65.32;99819.00;4875691;29;20484;-91
2023/09/28 03:38:39;;;;;;;5.72;3.78;;;;;;;18.58;65.49;99895.88;4860279;29;20041;-95
2023/09/28 03:41:08;;;;;;;6.93;3.10;;;;;;;18.14;65.47;99805.25;4892128;29;20097;-87
2023/09/28 03:43:34;;;;;;;6.68;3.47;;;;;;;18.22;65.58;99813.75;4893448;29;20097;-86
2023/09/28 03:45:59;;;;;;;5.60;3.03;;;;;;;18.31;65.86;99836.53;4893436;29;20045;-87
2023/09/28 03:48:25;;;;;;;12.43;3.45;;;;;;;18.28;65.69;99825.13;4876982;29;20475;-88
2023/09/28 03:50:50;;;;;;;7.28;2.80;;;;;;;18.46;65.54;99840.31;4884925;29;20235;-88
2023/09/28 03:53:16;;;;;;;18.60;3.88;;;;;;;18.78;65.50;99894.97;4942755;28;20061;-87
2023/09/28 03:55:42;;;;;;;2.80;1.60;;;;;;;18.70;64.18;99859.69;4970134;28;20436;-86
2023/09/28 03:58:07;;;;;;;7.15;3.20;;;;;;;18.65;63.50;99853.69;4972856;28;20081;-87
2023/09/28 04:00:33;;;;;;;4.38;3.03;;;;;;;18.99;63.41;99884.25;4970764;28;20450;-90
2023/09/28 04:02:59;;;;;;;10.82;2.67;;;;;;;18.59;62.82;99835.28;4981695;28;20463;-90
2023/09/28 04:05:25;;;;;;;2.92;1.85;;;;;;;18.78;63.17;99862.00;5089843;28;20481;-91
2023/09/28 04:07:50;;;;;;;12.00;2.80;;;;;;;18.81;62.91;99867.22;5109276;28;20463;-91
2023/09/28 04:10:19;;;;;;;9.38;2.63;;;;;;;18.54;62.60;99837.31;5109992;28;20027;-91
2023/09/28 04:12:44;;;;;;;8.35;3.83;;;;;;;18.53;62.89;99833.75;5107514;28;20027;-90
2023/09/28 04:15:10;;;;;;;6.65;4.07;;;;;;;18.65;63.26;99858.19;5107853;28;20448;-90
2023/09/28 04:17:36;;;;;;;5.47;4.22;;;;;;;18.67;63.43;99850.97;5090062;28;20039;-88
2023/09/28 04:20:06;;;;;;;8.98;3.80;;;;;;;18.04;64.87;99825.25;5090402;28;20505;-93
2023/09/28 04:29:58;;;;;;;5.60;2.60;;;;;;;18.25;64.49;99847.47;5049521;28;20438;-96
2023/09/28 04:32:23;;;;;;;8.10;3.67;;;;;;;18.27;64.90;99858.09;5008278;28;20037;-93
2023/09/28 04:34:58;;;;;;;13.95;2.72;;;;;;;18.77;65.04;99929.78;5008444;28;20037;-94
2023/09/28 04:37:28;;;;;;;5.28;3.40;;;;;;;18.63;64.68;99906.34;5011830;28;20041;-92
2023/09/28 04:39:53;;;;;;;14.07;3.63;;;;;;;18.28;64.93;99844.69;5011686;28;20527;-94
2023/09/28 04:42:20;;;;;;;14.88;2.72;;;;;;;18.52;64.45;99868.53;5010757;28;20046;-93
2023/09/28 04:44:46;;;;;;;7.55;3.15;;;;;;;18.45;64.66;99859.94;5011034;28;20030;-94
2023/09/28 04:47:29;;;;;;;12.27;3.53;;;;;;;18.38;64.83;99851.34;5010305;28;20166;-95
2023/09/28 04:50:34;;;;;;;5.13;2.50;;;;;;;18.19;65.40;99871.78;5026616;28;20038;-94
2023/09/28 04:53:36;;;;;;;3.95;2.10;;;;;;;18.37;65.08;99895.00;4958046;28;20050;-94
2023/09/28 04:56:45;;;;;;;24.35;4.45;;;;;;;18.14;65.41;99876.47;4912855;29;20056;-95
2023/09/28 04:59:20;;;;;;;7.05;3.45;;;;;;;18.54;65.74;99909.44;4892404;29;20039;-95
2023/09/28 05:01:46;;;;;;;4.73;3.30;;;;;;;18.81;65.55;99938.50;4882259;29;20052;-90
2023/09/28 05:04:14;;;;;;;6.72;3.28;;;;;;;18.92;65.16;99958.50;4933682;29;20274;-92
2023/09/28 05:06:40;;;;;;;9.57;2.55;;;;;;;18.50;65.03;99883.78;4947290;28;20042;-94
2023/09/28 05:09:06;;;;;;;7.15;4.55;;;;;;;18.61;65.11;99900.19;4974223;28;20030;-95
2023/09/28 05:11:32;;;;;;;15.98;3.70;;;;;;;18.79;64.81;99928.75;4937940;28;20536;-94
2023/09/28 05:13:59;;;;;;;26.63;4.22;;;;;;;18.64;65.54;99867.13;4970201;28;20541;-96
2023/09/28 05:16:50;;;;;;;;;;;;;;;;;;;;;
2023/09/28 05:19:18;;;;;;;8.82;3.85;;;;;;;19.57;65.22;99954.59;4970770;28;20047;-89
2023/09/28 05:29:31;;;;;;;;;;;;;;;;;;;;;
2023/09/28 05:35:41;;;;;;;9.23;3.53;;;;;;;19.66;63.19;99897.97;5039874;28;20112;-94
2023/09/28 05:49:20;;;;;;;7.57;3.35;;;;;;;19.98;60.35;99899.06;4932022;29;20035;-94
2023/09/28 05:51:56;;;;;;;12.20;2.70;;;;;;;19.99;60.02;99889.25;4906862;29;20052;-95
2023/09/28 05:54:26;;;;;;;9.98;3.40;;;;;;;19.88;60.36;99884.44;4915833;29;20043;-95
2023/09/28 05:57:00;;;;;;;10.02;2.85;;;;;;;20.15;59.63;99927.66;4915057;29;20080;-94
2023/09/28 05:59:46;;;;;;;5.20;2.30;;;;;;;19.99;60.22;99892.78;4915055;29;20542;-94
2023/09/28 06:02:21;;;;;;;9.02;4.05;;;;;;;20.33;60.02;99925.00;4914002;29;20072;-95
2023/09/28 06:04:47;;;;;;;5.25;2.70;;;;;;;20.15;59.69;99908.91;4909968;29;20511;-90
2023/09/28 06:07:16;;;;;;;12.85;3.38;;;;;;;20.49;59.19;99917.03;4912034;29;20462;-93
2023/09/28 06:09:43;;;;;;;7.55;3.00;;;;;;;20.49;58.65;99912.53;4901609;29;20149;-93
2023/09/28 06:15:33;;;;;;;24.08;3.90;;;;;;;20.86;58.16;99923.13;4919751;29;20050;-94
2023/09/28 06:18:00;;;;;;;9.68;2.42;;;;;;;20.76;57.24;99890.59;4921798;29;20039;-95
2023/09/28 06:20:52;;;;;;;8.50;2.38;;;;;;;21.55;56.32;99969.44;4939088;29;20063;-92
2023/09/28 06:23:21;;;;;;;15.50;4.05;;;;;;;21.31;56.51;99945.69;4994876;28;20047;-95
2023/09/28 06:25:47;;;;;;;6.15;2.88;;;;;;;21.11;56.58;99903.88;4996851;28;20051;-90
2023/09/28 06:28:13;;;;;;;10.45;3.05;;;;;;;21.40;56.36;99941.63;5003466;28;20566;-90
2023/09/28 06:30:38;;;;;;;4.38;2.63;;;;;;;21.51;55.62;99939.25;5019071;28;20030;-91
2023/09/28 06:33:05;;;;;;;6.97;3.15;;;;;;;21.43;55.89;99945.00;5022942;28;20578;-94
2023/09/28 06:35:32;;;;;;;5.82;2.70;;;;;;;21.44;55.86;99933.31;5018192;28;20075;-94
2023/09/28 06:38:00;;;;;;;7.63;3.35;;;;;;;21.72;55.40;99973.84;5017250;28;20029;-92
2023/09/28 06:40:27;;;;;;;11.45;3.15;;;;;;;21.44;55.81;99938.69;5035508;28;20041;-96
2023/09/28 06:42:52;;;;;;;17.98;6.10;;;;;;;21.54;55.68;99947.13;5018642;28;20235;-93
2023/09/28 06:45:19;;;;;;;13.52;4.00;;;;;;;21.39;55.02;99905.00;5030734;28;20135;-91
2023/09/28 06:47:44;;;;;;;5.28;2.47;;;;;;;21.61;54.98;99929.72;5048764;28;20072;-92
2023/09/28 06:50:11;;;;;;;16.20;2.53;;;;;;;21.43;54.59;99899.38;5022344;28;20046;-92
2023/09/28 06:52:37;;;;;;;7.68;2.92;;;;;;;21.57;55.21;99949.63;5084715;28;20051;-93
2023/09/28 06:55:04;;;;;;;10.85;3.03;;;;;;;21.35;55.88;99944.56;5117091;28;20024;-92
2023/09/28 06:57:31;;;;;;;9.23;3.72;;;;;;;21.38;55.17;99932.78;5115061;28;20079;-91
2023/09/28 06:59:57;;;;;;;17.35;3.53;;;;;;;21.92;54.80;99992.41;5115251;28;20031;-92
2023/09/28 07:02:23;;;;;;;16.95;3.80;;;;;;;21.37;55.87;99915.84;5130309;28;20091;-93
2023/09/28 07:04:49;;;;;;;16.38;2.42;;;;;;;22.08;55.05;99999.56;5117072;28;20092;-94
2023/09/28 07:07:17;;;;;;;5.72;3.15;;;;;;;21.97;54.50;99978.69;5117180;28;20020;-94
2023/09/28 07:09:44;;;;;;;6.63;3.30;;;;;;;22.00;54.59;99963.28;5116390;28;20095;-93
2023/09/28 07:12:12;;;;;;;4.07;2.38;;;;;;;21.77;54.26;99947.63;5098458;28;20028;-92
2023/09/28 07:14:38;;;;;;;4.85;3.30;;;;;;;21.86;52.99;99939.03;5091616;28;20241;-95
2023/09/28 07:17:05;;;;;;;7.78;3.60;;;;;;;21.94;52.84;99946.66;5089540;28;20148;-93
2023/09/28 07:19:31;;;;;;;14.85;3.83;;;;;;;21.92;53.39;99964.66;5091670;28;20028;-93
2023/09/28 07:21:56;;;;;;;20.73;4.78;;;;;;;21.93;53.27;99956.50;5102787;28;20024;-92
2023/09/28 07:24:22;;;;;;;7.03;3.53;;;;;;;22.23;53.48;99984.34;5101632;28;20043;-93
2023/09/28 07:26:48;;;;;;;8.77;2.25;;;;;;;22.17;52.77;99948.00;5090639;28;20028;-94
2023/09/28 07:29:15;;;;;;;7.05;3.03;;;;;;;22.62;53.14;100016.09;5090393;28;20047;-95
2023/09/28 07:31:41;;;;;;;11.80;3.33;;;;;;;22.34;52.95;99972.06;5095155;28;20024;-94
2023/09/28 07:34:07;;;;;;;19.17;2.75;;;;;;;22.42;53.14;99981.50;5088415;28;20105;-90
2023/09/28 07:36:33;;;;;;;14.20;3.55;;;;;;;22.15;52.53;99955.25;5091749;28;20024;-93
2023/09/28 07:39:00;;;;;;;14.60;3.60;;;;;;;22.45;51.83;99984.84;5089457;28;20036;-91
2023/09/28 07:41:26;;;;;;;13.65;3.67;;;;;;;22.32;51.41;99956.97;5100572;28;20035;-92
2023/09/28 07:43:51;;;;;;;22.58;4.70;;;;;;;22.37;51.93;99987.16;5109985;28;20695;-92
2023/09/28 07:46:23;;;;;;;17.00;4.53;;;;;;;22.28;52.35;99926.72;5099957;28;20115;-93
2023/09/28 07:48:56;;;;;;;4.97;2.28;;;;;;;22.34;50.64;99918.31;5072790;28;20498;-95
2023/09/28 07:51:31;;;;;;;9.90;3.00;;;;;;;22.60;49.30;99955.31;5099317;28;20044;-95
2023/09/28 07:53:57;;;;;;;10.60;2.53;;;;;;;22.93;48.66;100016.94;5089013;28;20522;-93
2023/09/28 07:56:24;;;;;;;3.60;2.20;;;;;;;22.97;48.32;100010.41;5089446;28;20086;-93
2023/09/28 07:58:49;;;;;;;3.55;2.15;;;;;;;22.66;47.82;99936.13;5073369;28;20488;-93
2023/09/28 08:01:16;;;;;;;6.82;2.28;;;;;;;22.83;47.83;99956.59;5092082;28;20039;-93
2023/09/28 08:03:42;;;;;;;11.35;3.20;;;;;;;23.17;49.27;99992.19;5090363;28;20039;-92
2023/09/28 08:06:09;;;;;;;5.32;2.88;;;;;;;23.39;48.19;100003.31;5090771;28;20028;-90
2023/09/28 08:08:34;;;;;;;16.48;3.50;;;;;;;23.23;49.02;99971.16;5088268;28;20170;-93
2023/09/28 08:11:00;;;;;;;11.52;3.65;;;;;;;23.32;47.79;99964.28;5093386;28;20130;-90
2023/09/28 08:13:26;;;;;;;7.38;4.18;;;;;;;23.11;48.61;99914.53;5093311;28;20256;-92
2023/09/28 08:15:52;;;;;;;11.80;2.65;;;;;;;23.49;47.80;99978.50;5071510;28;20177;-91
2023/09/28 08:18:17;;;;;;;12.57;3.20;;;;;;;23.21;48.02;99919.22;5088696;28;20024;-92
2023/09/28 08:20:44;;;;;;;8.18;3.13;;;;;;;23.49;47.72;99968.59;5092370;28;20413;-91
2023/09/28 08:23:11;;;;;;;10.18;2.50;;;;;;;23.19;48.17;99931.94;5090523;28;20028;-91
2023/09/28 08:25:38;;;;;;;11.30;2.58;;;;;;;23.36;47.81;99952.38;5090175;28;20060;-94
2023/09/28 08:28:04;;;;;;;5.95;3.20;;;;;;;23.63;48.74;99983.84;5089875;28;20024;-93
2023/09/28 08:30:30;;;;;;;4.45;2.70;;;;;;;23.75;46.34;99952.59;5094434;28;20408;-92
2023/09/28 08:32:55;;;;;;;7.78;2.67;;;;;;;23.85;46.29;99952.88;5091236;28;20028;-92
2023/09/28 08:36:06;;;;;;;17.17;1.92;;;;;;;23.83;48.62;99925.16;5090022;28;20024;-93
2023/09/28 08:38:48;;;;;;;5.32;2.50;;;;;;;24.38;46.25;99959.16;5047449;28;20037;-94
2023/09/28 08:41:38;;;;;;;9.60;2.85;;;;;;;24.66;45.79;99933.88;5048709;28;20029;-95
2023/09/28 08:47:38;;;;;;;7.43;2.28;;;;;;;24.95;44.01;99952.56;5049121;28;20523;-91
2023/09/28 08:57:35;;;;;;;;;;;;;;;;;;;;;
2023/09/28 09:00:33;;;;;;;;;;;;;;;;;;;;;
2023/09/28 09:17:19;;;;;;;6.47;3.55;;;;;;;25.22;44.48;99884.06;5033112;28;20136;-94
2023/09/28 09:20:28;;;;;;;11.38;2.20;;;;;;;25.48;43.21;99952.38;4998359;28;20046;-92
2023/09/28 09:22:50;;;;;;;10.32;2.22;;;;;;;25.15;42.83;99899.84;5009468;28;20439;-93
2023/09/28 09:28:43;;;;;;;13.95;2.17;;;;;;;24.69;43.56;99895.06;5013167;28;20033;-94
2023/09/28 09:31:09;;;;;;;6.85;2.85;;;;;;;24.48;43.59;99886.59;4996401;28;20034;-95
2023/09/28 09:34:19;;;;;;;6.78;2.58;;;;;;;25.11;44.20;99965.81;5009414;28;20591;-94
2023/09/28 09:41:27;;;;;;;7.57;1.88;;;;;;;24.90;44.33;99889.09;5030788;28;20029;-93
2023/09/28 09:45:13;;;;;;;;;;;;;;;;;;;;;
2023/09/28 09:48:14;;;;;;;6.35;1.92;;;;;;;25.22;43.90;99880.50;4896334;29;20037;-91
2023/09/28 09:50:46;;;;;;;4.82;1.75;;;;;;;25.53;41.18;99898.03;4879859;29;20046;-92
2023/09/28 09:53:24;;;;;;;3.15;2.03;;;;;;;25.46;42.03;99891.38;4895491;29;20065;-92
2023/09/28 09:55:58;;;;;;;3.35;2.05;;;;;;;25.94;41.78;99906.72;4879671;29;20588;-91
2023/09/28 09:59:05;;;;;;;;;;;;;;;;;;;;;
2023/09/28 10:01:38;;;;;;;7.80;2.15;;;;;;;26.22;41.14;99870.34;4895787;29;20574;-90
2023/09/28 10:04:12;;;;;;;6.07;1.95;;;;;;;26.59;41.69;99906.19;4880072;29;20075;-93
2023/09/28 10:07:00;;;;;;;3.10;2.03;;;;;;;26.53;41.37;99862.53;4895562;29;20104;-91
2023/09/28 10:10:09;;;;;;;2.30;1.48;;;;;;;27.06;40.03;99932.31;4879269;29;20049;-91
2023/09/28 10:12:45;;;;;;;8.27;2.30;;;;;;;26.60;40.48;99878.16;4876770;29;20041;-91
2023/09/28 10:15:13;;;;;;;3.28;1.90;;;;;;;26.55;41.21;99860.56;4877388;29;20109;-92
2023/09/28 10:17:38;;;;;;;2.55;1.27;;;;;;;26.50;40.06;99876.31;4943442;28;20038;-91
2023/09/28 10:20:51;;;;;;;3.25;2.10;;;;;;;26.25;40.24;99852.03;4972326;28;20045;-96
2023/09/28 10:23:26;;;;;;;3.70;1.63;;;;;;;26.44;40.46;99877.63;5051098;28;20036;-92
2023/09/28 10:25:56;;;;;;;2.13;1.40;;;;;;;26.35;39.49;99856.72;5094717;28;20458;-92
2023/09/28 10:29:19;;;;;;;;;;;;;;;;;;;;;
2023/09/28 10:31:46;;;;;;;3.80;1.88;;;;;;;25.91;41.06;99864.56;5011191;28;20041;-92
2023/09/28 10:34:20;;;;;;;3.17;1.63;;;;;;;26.07;40.45;99846.25;5037372;28;20128;-93
2023/09/28 10:37:18;;;;;;;5.40;2.08;;;;;;;26.68;40.51;99928.09;5044334;28;20049;-94
2023/09/28 10:40:06;;;;;;;2.05;1.40;;;;;;;26.63;40.20;99909.50;5031029;28;20029;-92
2023/09/28 10:42:32;;;;;;;7.88;1.13;;;;;;;26.04;40.54;99854.59;5017352;28;20043;-91
2023/09/28 10:45:07;;;;;;;5.18;1.58;;;;;;;26.18;41.21;99885.97;5029796;28;20132;-91
2023/09/28 10:47:35;;;;;;;5.40;1.67;;;;;;;25.85;43.78;99884.81;5013212;28;20112;-91
2023/09/28 10:53:13;;;;;;;4.88;1.40;;;;;;;25.79;42.16;99866.38;4949400;29;20142;-90
2023/09/28 10:55:46;;;;;;;12.27;6.00;;;;;;;26.35;42.86;99924.31;4946339;29;20062;-89
2023/09/28 10:58:22;;;;;;;4.63;2.25;;;;;;;26.09;42.45;99875.84;4949573;29;20098;-90
2023/09/28 11:01:07;;;;;;;5.05;2.45;;;;;;;26.00;42.77;99847.69;4948399;29;20065;-91
2023/09/28 11:03:34;;;;;;;3.85;1.35;;;;;;;26.06;41.95;99859.88;4923344;29;20089;-90
2023/09/28 11:06:07;;;;;;;3.63;1.83;;;;;;;26.06;41.61;99832.84;4949802;29;20125;-92
2023/09/28 11:08:34;;;;;;;5.03;2.28;;;;;;;26.18;43.25;99850.81;4984536;28;20061;-90
2023/09/28 11:11:08;;;;;;;9.25;1.65;;;;;;;26.52;41.71;99902.22;5028903;28;20076;-92
2023/09/28 11:13:39;;;;;;;5.35;2.47;;;;;;;26.09;42.96;99835.31;5012483;28;20037;-91
2023/09/28 11:16:06;;;;;;;9.57;2.30;;;;;;;26.40;42.42;99876.16;5027457;28;20033;-89
2023/09/28 11:18:34;;;;;;;5.03;2.38;;;;;;;26.19;42.32;99847.13;5028813;28;20041;-89
2023/09/28 11:21:03;;;;;;;4.32;1.38;;;;;;;26.03;43.33;99814.16;5027734;28;20443;-89
2023/09/28 11:23:29;;;;;;;8.02;2.17;;;;;;;26.29;42.12;99839.16;5028273;28;20041;-90
2023/09/28 11:26:09;;;;;;;2.50;1.70;;;;;;;26.56;42.40;99857.75;5027353;28;20206;-92
2023/09/28 11:28:36;;;;;;;10.07;2.03;;;;;;;26.77;42.11;99854.31;5017039;28;20038;-90
2023/09/28 11:31:08;;;;;;;1.88;1.33;;;;;;;26.79;42.24;99865.91;5091954;28;20032;-89
2023/09/28 11:33:44;;;;;;;6.90;2.13;;;;;;;26.59;41.90;99833.16;5109359;28;20032;-91
2023/09/28 11:36:16;;;;;;;5.78;1.73;;;;;;;26.44;42.16;99842.50;5094365;28;20032;-89
2023/09/28 11:38:45;;;;;;;5.50;1.65;;;;;;;26.31;42.72;99815.56;5095131;28;20032;-90
2023/09/28 11:41:24;;;;;;;;;;;;;;;;;;;;;
2023/09/28 11:44:01;;;;;;;2.88;1.75;;;;;;;26.28;42.66;99813.09;5091142;28;20032;-93
2023/09/28 11:46:33;;;;;;;4.75;2.42;;;;;;;25.92;44.07;99829.34;5091255;28;20393;-91
2023/09/28 11:49:18;;;;;;;3.80;1.40;;;;;;;26.34;43.29;99855.88;5096204;28;20578;-94
2023/09/28 11:51:52;;;;;;;15.50;2.58;;;;;;;25.94;43.75;99810.31;5110654;28;20040;-94
2023/09/28 11:54:20;;;;;;;2.42;1.42;;;;;;;26.17;43.64;99854.50;5111498;28;20020;-94
2023/09/28 11:56:50;;;;;;;2.70;1.73;;;;;;;26.37;43.48;99874.56;5093462;28;20032;-94
2023/09/28 11:59:54;;;;;;;7.65;1.77;;;;;;;26.21;43.42;99822.66;5110221;28;20059;-94
2023/09/28 12:02:23;;;;;;;;;;;;;;;26.63;44.23;99883.34;5011918;28;20067;-94
2023/09/28 12:05:09;;;;;;;6.07;1.80;;;;;;;26.44;43.40;99869.53;5011529;28;19913;-92
2023/09/28 12:08:29;;;;;;;5.72;1.52;;;;;;;26.13;43.57;99823.28;5011230;28;20037;-93
2023/09/28 12:11:12;;;;;;;3.42;1.90;;;;;;;26.53;43.64;99886.88;4988206;28;20495;-91
2023/09/28 12:14:00;;;;;;;7.40;2.13;;;;;;;26.22;43.92;99822.53;4972320;28;20034;-91
2023/09/28 12:16:31;;;;;;;4.10;1.45;;;;;;;26.41;43.13;99838.16;4988495;28;20061;-90
2023/09/28 12:18:57;;;;;;;9.00;1.83;;;;;;;26.09;43.26;99797.47;4988158;28;20050;-87
2023/09/28 12:21:25;;;;;;;3.38;2.00;;;;;;;26.41;43.27;99804.88;4988405;28;20050;-88
2023/09/28 12:23:50;;;;;;;2.65;1.52;;;;;;;26.46;42.83;99808.06;4988446;28;20109;-88
2023/09/28 12:27:34;;;;;;;3.50;1.73;;;;;;;26.40;42.23;99808.53;4988880;28;20038;-91
2023/09/28 12:30:40;;;;;;;3.15;1.95;;;;;;;26.69;42.26;99883.84;4892826;29;20555;-92
2023/09/28 12:33:14;;;;;;;22.50;2.05;;;;;;;26.35;42.51;99832.41;4930791;29;20039;-93
2023/09/28 12:35:51;;;;;;;2.08;1.27;;;;;;;26.27;42.15;99817.66;4989137;28;20085;-88
2023/09/28 12:38:54;;;;;;;;;;;;;;;;;;;;;
2023/09/28 12:41:22;;;;;;;3.63;1.67;;;;;;;26.36;42.19;99799.81;5024901;28;20422;-95
2023/09/28 12:43:47;;;;;;;2.97;1.63;;;;;;;26.48;42.97;99821.47;4994280;28;20033;-92
2023/09/28 12:46:22;;;;;;;10.95;1.70;;;;;;;26.27;43.13;99790.63;5028188;28;20459;-93
2023/09/28 12:48:47;;;;;;;5.93;1.98;;;;;;;26.65;42.97;99850.75;5028613;28;20124;-88
2023/09/28 12:51:16;;;;;;;6.97;1.65;;;;;;;26.36;43.40;99832.28;5027905;28;20477;-90
2023/09/28 12:54:02;;;;;;;5.30;2.05;;;;;;;26.14;43.98;99803.38;5012466;28;20053;-96
2023/09/28 12:56:31;;;;;;;16.92;1.83;;;;;;;26.32;43.99;99832.63;4995307;28;20065;-96
2023/09/28 12:59:51;;;;;;;4.20;2.10;;;;;;;25.86;43.36;99797.38;5015107;28;20041;-96
2023/09/28 13:02:19;;;;;;;2.53;1.45;;;;;;;25.91;44.40;99813.25;5013085;28;20113;-96
2023/09/28 13:09:09;;;;;;;2.92;1.60;;;;;;;26.30;44.43;99859.78;5048900;28;20033;-96
2023/09/28 13:12:03;;;;;;;3.00;1.55;;;;;;;25.73;44.71;99780.38;5006955;28;20107;-96
2023/09/28 13:22:29;;;;;;;4.05;2.08;;;;;;;25.69;45.32;99805.94;4931086;29;20505;-96
2023/09/28 13:29:20;;;;;;;;;;;;;;;;;;;;;
2023/09/28 13:40:40;;;;;;;3.47;2.17;;;;;;;25.95;45.77;99860.66;4881288;29;20033;-96
2023/09/28 13:42:55;;;;;;;;;;;;;;;;;;;;;
2023/09/28 13:46:02;;;;;;;5.18;1.48;;;;;;;26.13;45.78;99852.16;4927045;28;20035;-94
2023/09/28 13:52:30;;;;;;;6.43;2.05;;;;;;;25.82;45.71;99833.72;4988226;28;20473;-92
2023/09/28 13:54:55;;;;;;;2.45;1.42;;;;;;;25.82;45.67;99811.25;5009171;28;20038;-92
2023/09/28 13:57:48;;;;;;;3.33;2.33;;;;;;;25.95;45.30;99816.56;5027447;28;20396;-95
2023/09/28 14:03:37;;;;;;;;;;;;;;;;;;;;;
2023/09/28 14:10:09;;;;;;;;;;;;;;;;;;;;;
2023/09/28 14:13:28;;;;;;;6.43;2.38;;;;;;;26.13;45.08;99853.00;4992877;28;20040;-94